createdAt,value
2023-05-23T00:02:15.567Z,3.20
2023-05-23T00:04:46.344Z,4.13
2023-05-23T00:07:17.552Z,4.07
2023-05-23T00:09:46.370Z,4.57
2023-05-23T00:12:14.733Z,4.90
2023-05-23T00:14:45.274Z,3.60
2023-05-23T00:17:17.585Z,3.50
2023-05-23T00:19:47.186Z,3.17
2023-05-23T00:22:16.725Z,3.22
2023-05-23T00:24:47.607Z,3.92
2023-05-23T00:27:16.356Z,2.45
2023-05-23T00:29:45.915Z,2.50
2023-05-23T00:32:15.549Z,2.40
2023-05-23T00:34:45.720Z,2.08
2023-05-23T00:37:16.619Z,1.95
2023-05-23T00:39:45.750Z,3.22
2023-05-23T00:42:15.670Z,2.70
2023-05-23T00:44:48.402Z,2.13
2023-05-23T00:47:21.156Z,2.25
2023-05-23T00:49:50.669Z,1.85
2023-05-23T00:52:20.066Z,1.65
2023-05-23T00:54:49.363Z,2.33
2023-05-23T00:57:20.601Z,3.55
2023-05-23T00:59:50.188Z,3.20
2023-05-23T01:02:19.093Z,3.72
2023-05-23T01:04:54.243Z,3.47
2023-05-23T01:07:22.884Z,2.97
2023-05-23T01:09:51.373Z,2.72
2023-05-23T01:12:25.020Z,2.30
2023-05-23T01:15:11.202Z,2.60
2023-05-23T01:17:52.160Z,2.35
2023-05-23T01:20:23.634Z,2.75
2023-05-23T01:23:00.365Z,2.17
2023-05-23T01:25:29.036Z,2.22
2023-05-23T01:27:58.474Z,2.45
2023-05-23T01:30:27.249Z,1.88
2023-05-23T01:33:06.808Z,2.03
2023-05-23T01:35:35.555Z,2.25
2023-05-23T01:38:06.934Z,2.33
2023-05-23T01:40:39.080Z,2.10
2023-05-23T01:43:07.953Z,2.08
2023-05-23T01:45:48.259Z,1.80
2023-05-23T01:48:18.136Z,1.80
2023-05-23T01:50:47.324Z,2.10
2023-05-23T01:53:20.003Z,2.03
2023-05-23T01:55:52.522Z,2.00
2023-05-23T01:58:23.939Z,2.35
2023-05-23T02:00:56.004Z,1.85
2023-05-23T02:03:37.990Z,2.05
2023-05-23T02:06:06.580Z,2.30
2023-05-23T02:08:39.203Z,2.30
2023-05-23T02:11:10.651Z,2.63
2023-05-23T02:13:39.299Z,2.40
2023-05-23T02:16:08.589Z,2.78
2023-05-23T02:18:41.124Z,3.15
2023-05-23T02:21:16.769Z,2.88
2023-05-23T02:23:47.455Z,2.60
2023-05-23T02:26:19.338Z,2.50
2023-05-23T02:28:50.312Z,2.42
2023-05-23T02:31:21.530Z,2.75
2023-05-23T02:33:50.054Z,2.25
2023-05-23T02:36:20.790Z,2.85
2023-05-23T02:38:50.691Z,2.22
2023-05-23T02:41:21.291Z,2.42
2023-05-23T02:43:52.387Z,2.50
2023-05-23T02:46:22.158Z,2.08
2023-05-23T02:48:53.108Z,2.42
2023-05-23T02:51:24.320Z,2.00
2023-05-23T02:53:53.717Z,2.13
2023-05-23T02:56:23.476Z,2.10
2023-05-23T02:58:54.381Z,2.80
2023-05-23T03:01:23.592Z,2.88
2023-05-23T03:03:53.235Z,2.63
2023-05-23T03:06:25.333Z,3.45
2023-05-23T03:08:57.061Z,3.53
2023-05-23T03:11:28.141Z,3.67
2023-05-23T03:13:58.538Z,4.13
2023-05-23T03:16:27.815Z,3.95
2023-05-23T03:18:57.677Z,3.33
2023-05-23T03:21:31.303Z,3.42
2023-05-23T03:23:59.630Z,3.47
2023-05-23T03:26:28.609Z,2.90
2023-05-23T03:28:58.406Z,3.05
2023-05-23T03:31:27.066Z,3.45
2023-05-23T03:33:57.011Z,2.75
2023-05-23T03:36:28.298Z,4.13
2023-05-23T03:38:57.467Z,3.55
2023-05-23T03:41:27.860Z,3.72
2023-05-23T03:44:00.769Z,3.35
2023-05-23T03:46:33.033Z,3.60
2023-05-23T03:49:05.558Z,3.15
2023-05-23T03:51:35.231Z,4.07
2023-05-23T03:54:04.715Z,3.80
2023-05-23T03:56:37.608Z,3.70
2023-05-23T03:59:09.938Z,4.53
2023-05-23T04:01:40.711Z,4.22
2023-05-23T04:04:09.416Z,3.70
2023-05-23T04:06:41.568Z,5.10
2023-05-23T04:09:16.987Z,3.60
2023-05-23T04:11:49.522Z,4.32
2023-05-23T04:14:20.178Z,4.65
2023-05-23T04:16:49.044Z,4.28
2023-05-23T04:19:18.590Z,4.78
2023-05-23T04:21:47.059Z,3.95
2023-05-23T04:24:18.876Z,3.38
2023-05-23T04:26:47.939Z,2.85
2023-05-23T04:29:17.609Z,2.88
2023-05-23T04:31:46.842Z,2.50
2023-05-23T04:34:22.515Z,2.90
2023-05-23T04:36:53.894Z,3.00
2023-05-23T04:39:25.581Z,2.67
2023-05-23T04:42:17.586Z,2.75
2023-05-23T04:45:04.097Z,2.58
2023-05-23T04:47:56.554Z,3.35
2023-05-23T04:50:37.992Z,2.83
2023-05-23T04:53:09.648Z,3.50
2023-05-23T04:55:41.446Z,4.13
2023-05-23T04:58:15.761Z,5.50
2023-05-23T05:00:44.899Z,5.45
2023-05-23T05:03:26.781Z,4.80
2023-05-23T05:05:59.281Z,4.25
2023-05-23T05:08:28.551Z,6.03
2023-05-23T05:10:59.442Z,6.13
2023-05-23T05:13:28.652Z,6.95
2023-05-23T05:15:58.849Z,6.43
2023-05-23T05:18:32.944Z,7.32
2023-05-23T05:21:05.282Z,5.68
2023-05-23T05:23:34.988Z,6.47
2023-05-23T05:26:05.671Z,5.45
2023-05-23T05:28:36.568Z,6.10
2023-05-23T05:31:08.501Z,5.55
2023-05-23T05:33:47.763Z,5.30
2023-05-23T05:36:17.811Z,6.80
2023-05-23T05:38:49.733Z,6.50
2023-05-23T05:41:22.408Z,6.88
2023-05-23T05:43:52.991Z,6.63
2023-05-23T05:46:25.879Z,6.85
2023-05-23T05:48:55.859Z,7.32
2023-05-23T05:51:27.339Z,7.25
2023-05-23T05:53:56.489Z,5.78
2023-05-23T05:56:26.194Z,5.03
2023-05-23T05:58:58.360Z,6.07
2023-05-23T06:01:30.805Z,5.40
2023-05-23T06:04:00.041Z,6.57
2023-05-23T06:06:30.357Z,5.93
2023-05-23T06:09:01.673Z,5.53
2023-05-23T06:11:39.209Z,5.05
2023-05-23T06:14:08.854Z,5.25
2023-05-23T06:19:13.217Z,5.45
2023-05-23T06:21:45.362Z,4.47
2023-05-23T06:24:17.275Z,5.57
2023-05-23T06:26:48.535Z,6.00
2023-05-23T06:29:20.115Z,5.35
2023-05-23T06:31:48.414Z,6.40
2023-05-23T06:34:17.556Z,5.55
2023-05-23T06:36:48.735Z,5.45
2023-05-23T06:39:21.371Z,5.72
2023-05-23T06:42:01.137Z,4.80
2023-05-23T06:44:53.027Z,4.63
2023-05-23T06:49:55.947Z,3.58
2023-05-23T06:52:25.099Z,4.07
2023-05-23T06:54:53.692Z,3.35
2023-05-23T06:57:25.035Z,4.20
2023-05-23T06:59:54.512Z,4.07
2023-05-23T07:02:22.967Z,5.35
2023-05-23T07:04:53.561Z,4.85
2023-05-23T07:07:48.411Z,5.05
2023-05-23T07:10:17.718Z,3.45
2023-05-23T07:12:50.463Z,3.30
2023-05-23T07:15:23.329Z,3.70
2023-05-23T07:18:16.281Z,3.03
2023-05-23T07:20:51.108Z,4.53
2023-05-23T07:23:33.487Z,5.72
2023-05-23T07:26:03.329Z,5.63
2023-05-23T07:28:42.200Z,4.32
2023-05-23T07:31:18.349Z,4.15
2023-05-23T07:33:56.726Z,5.88
2023-05-23T07:36:35.687Z,5.43
2023-05-23T07:39:05.312Z,4.90
2023-05-23T07:41:34.775Z,7.50
2023-05-23T07:44:07.076Z,7.00
2023-05-23T07:46:39.026Z,7.55
2023-05-23T07:49:08.390Z,6.63
2023-05-23T07:51:41.713Z,5.32
2023-05-23T07:54:15.751Z,5.53
2023-05-23T07:56:45.210Z,5.82
2023-05-23T07:59:19.599Z,5.70
2023-05-23T08:01:51.281Z,6.30
2023-05-23T08:04:21.946Z,5.72
2023-05-23T08:07:04.112Z,5.50
2023-05-23T08:09:48.704Z,5.75
2023-05-23T08:12:20.372Z,6.22
2023-05-23T08:14:53.803Z,8.25
2023-05-23T08:17:28.123Z,7.50
2023-05-23T08:20:01.060Z,9.05
2023-05-23T08:22:42.798Z,9.85
2023-05-23T08:25:14.425Z,10.07
2023-05-23T08:27:44.908Z,9.73
2023-05-23T08:30:38.170Z,9.20
2023-05-23T08:33:25.387Z,8.52
2023-05-23T08:36:01.260Z,8.30
2023-05-23T08:38:35.413Z,7.53
2023-05-23T08:41:25.939Z,7.33
2023-05-23T08:44:01.684Z,7.53
2023-05-23T08:46:41.131Z,7.57
2023-05-23T08:49:11.994Z,6.30
2023-05-23T08:51:44.089Z,4.97
2023-05-23T08:54:22.409Z,4.40
2023-05-23T08:56:52.241Z,3.63
2023-05-23T08:59:24.743Z,3.95
2023-05-23T09:01:54.530Z,5.60
2023-05-23T09:04:26.071Z,8.57
2023-05-23T09:07:03.943Z,9.35
2023-05-23T09:09:34.617Z,11.35
2023-05-23T09:12:06.152Z,10.68
2023-05-23T09:14:37.446Z,14.68
2023-05-23T09:17:09.650Z,13.90
2023-05-23T09:19:43.050Z,13.25
2023-05-23T09:22:27.035Z,10.43
2023-05-23T09:25:06.164Z,8.43
2023-05-23T09:27:37.191Z,3.95
2023-05-23T09:30:11.306Z,4.10
2023-05-23T09:33:03.139Z,3.40
2023-05-23T09:35:44.358Z,2.78
2023-05-23T09:38:16.126Z,2.70
2023-05-23T09:40:46.848Z,2.90
2023-05-23T09:43:18.224Z,2.47
2023-05-23T09:45:54.670Z,4.47
2023-05-23T09:48:30.855Z,5.70
2023-05-23T09:51:04.682Z,6.93
2023-05-23T09:53:35.922Z,9.90
2023-05-23T09:56:05.074Z,9.35
2023-05-23T09:58:36.182Z,8.60
2023-05-23T10:01:11.742Z,8.10
2023-05-23T10:03:47.122Z,7.45
2023-05-23T10:06:47.015Z,8.00
2023-05-23T10:09:18.758Z,8.85
2023-05-23T10:12:17.429Z,10.13
2023-05-23T10:14:48.447Z,13.50
2023-05-23T10:17:20.174Z,10.48
2023-05-23T10:19:54.194Z,7.18
2023-05-23T10:22:22.961Z,5.28
2023-05-23T10:24:53.989Z,3.72
2023-05-23T10:27:22.552Z,3.67
2023-05-23T10:29:51.501Z,4.03
2023-05-23T10:32:21.133Z,3.03
2023-05-23T10:35:01.106Z,3.30
2023-05-23T10:37:58.082Z,2.67
2023-05-23T10:40:33.583Z,2.60
2023-05-23T10:43:08.600Z,2.85
2023-05-23T10:45:49.731Z,2.75
2023-05-23T10:48:22.045Z,2.83
2023-05-23T10:51:11.307Z,2.53
2023-05-23T10:53:40.897Z,3.00
2023-05-23T10:56:09.687Z,1.90
2023-05-23T10:58:41.898Z,2.28
2023-05-23T11:01:18.091Z,1.73
2023-05-23T11:03:52.047Z,1.75
2023-05-23T11:06:32.762Z,1.77
2023-05-23T11:09:08.180Z,2.17
2023-05-23T11:11:52.233Z,2.67
2023-05-23T11:14:32.507Z,2.05
2023-05-23T11:17:01.824Z,2.22
2023-05-23T11:19:30.475Z,2.10
2023-05-23T11:22:02.368Z,2.10
2023-05-23T11:24:50.526Z,1.80
2023-05-23T11:27:29.319Z,1.90
2023-05-23T11:30:10.212Z,2.90
2023-05-23T11:32:54.024Z,1.58
2023-05-23T11:35:22.843Z,2.05
2023-05-23T11:37:53.656Z,1.83
2023-05-23T11:40:27.084Z,2.17
2023-05-23T11:42:58.374Z,1.90
2023-05-23T11:45:27.287Z,2.00
2023-05-23T11:47:56.333Z,1.77
2023-05-23T11:50:25.618Z,2.00
2023-05-23T11:52:55.851Z,1.58
2023-05-23T11:55:26.984Z,1.65
2023-05-23T11:57:56.888Z,1.77
2023-05-23T12:00:26.651Z,1.90
2023-05-23T12:03:14.483Z,2.38
2023-05-23T12:05:45.622Z,2.13
2023-05-23T12:08:15.419Z,2.22
2023-05-23T12:11:10.300Z,1.70
2023-05-23T12:13:42.306Z,1.55
2023-05-23T12:16:15.555Z,1.73
2023-05-23T12:18:44.631Z,1.67
2023-05-23T12:21:14.631Z,2.00
2023-05-23T12:23:43.331Z,1.88
2023-05-23T12:26:13.870Z,2.28
2023-05-23T12:28:45.220Z,2.97
2023-05-23T12:31:17.455Z,1.65
2023-05-23T12:33:50.420Z,1.27
2023-05-23T12:36:23.123Z,1.50
2023-05-23T12:38:54.647Z,1.65
2023-05-23T12:41:23.793Z,1.50
2023-05-23T12:43:59.003Z,1.38
2023-05-23T12:46:33.244Z,1.83
2023-05-23T12:49:04.883Z,1.75
2023-05-23T12:51:37.690Z,1.60
2023-05-23T12:54:07.004Z,2.38
2023-05-23T12:56:38.366Z,1.55
2023-05-23T12:59:10.492Z,2.20
2023-05-23T13:01:39.078Z,1.88
2023-05-23T13:04:08.627Z,2.28
2023-05-23T13:06:38.748Z,1.58
2023-05-23T13:09:08.017Z,1.25
2023-05-23T13:11:40.682Z,1.50
2023-05-23T13:16:53.434Z,2.13
2023-05-23T13:19:22.927Z,1.73
2023-05-23T13:21:52.662Z,1.25
2023-05-23T13:24:27.913Z,1.17
2023-05-23T13:26:58.399Z,1.33
2023-05-23T13:29:31.600Z,1.23
2023-05-23T13:32:03.025Z,1.60
2023-05-23T13:34:37.468Z,1.50
2023-05-23T13:37:08.998Z,2.20
2023-05-23T13:39:37.524Z,1.35
2023-05-23T13:42:07.946Z,1.10
2023-05-23T13:44:37.774Z,1.17
2023-05-23T13:47:13.434Z,1.42
2023-05-23T13:49:45.399Z,1.63
2023-05-23T13:52:16.623Z,1.85
2023-05-23T13:54:47.343Z,1.25
2023-05-23T13:57:17.502Z,2.30
2023-05-23T13:59:46.405Z,1.40
2023-05-23T14:02:17.422Z,1.40
2023-05-23T14:04:47.491Z,1.33
2023-05-23T14:07:16.986Z,1.45
2023-05-23T14:09:47.444Z,1.60
2023-05-23T14:12:18.523Z,1.08
2023-05-23T14:14:46.847Z,1.45
2023-05-23T14:17:17.074Z,1.27
2023-05-23T14:19:46.825Z,1.33
2023-05-23T14:22:15.625Z,1.00
2023-05-23T14:24:47.143Z,1.10
2023-05-23T14:27:15.688Z,1.25
2023-05-23T14:29:46.575Z,1.48
2023-05-23T14:32:17.595Z,1.30
2023-05-23T14:34:46.429Z,1.05
2023-05-23T14:37:18.767Z,1.20
2023-05-23T14:39:48.793Z,1.20
2023-05-23T14:42:20.968Z,1.42
2023-05-23T14:44:49.645Z,1.17
2023-05-23T14:47:18.749Z,1.42
2023-05-23T14:49:49.178Z,1.70
2023-05-23T14:52:20.087Z,1.05
2023-05-23T14:54:48.937Z,1.30
2023-05-23T14:57:17.310Z,1.52
2023-05-23T14:59:46.436Z,0.88
2023-05-23T15:02:17.398Z,1.40
2023-05-23T15:04:48.103Z,1.35
2023-05-23T15:07:18.538Z,0.90
2023-05-23T15:09:47.734Z,2.20
2023-05-23T15:12:16.295Z,1.33
2023-05-23T15:14:45.290Z,1.23
2023-05-23T15:17:20.074Z,1.40
2023-05-23T15:19:49.100Z,1.47
2023-05-23T15:22:37.937Z,1.63
2023-05-23T15:25:08.869Z,1.10
2023-05-23T15:27:44.867Z,0.90
2023-05-23T15:30:16.292Z,1.40
2023-05-23T15:33:07.361Z,1.10
2023-05-23T15:35:36.123Z,0.98
2023-05-23T15:38:07.785Z,1.30
2023-05-23T15:40:42.095Z,1.83
2023-05-23T15:45:41.911Z,1.50
2023-05-23T15:48:11.167Z,1.17
2023-05-23T15:50:40.667Z,1.08
2023-05-23T15:53:10.149Z,1.27
2023-05-23T15:55:42.559Z,1.02
2023-05-23T15:58:14.392Z,1.10
2023-05-23T16:00:43.084Z,1.33
2023-05-23T16:03:29.329Z,1.17
2023-05-23T16:05:59.150Z,1.25
2023-05-23T16:08:28.484Z,1.40
2023-05-23T16:11:00.856Z,1.08
2023-05-23T16:13:32.216Z,1.33
2023-05-23T16:16:05.580Z,0.95
2023-05-23T16:21:08.639Z,1.10
2023-05-23T16:23:39.894Z,1.20
2023-05-23T16:26:08.332Z,1.10
2023-05-23T16:28:42.422Z,1.35
2023-05-23T16:31:15.356Z,1.13
2023-05-23T16:33:49.580Z,1.33
2023-05-23T16:36:21.052Z,0.77
2023-05-23T16:38:49.475Z,1.13
2023-05-23T16:41:18.226Z,1.25
2023-05-23T16:43:51.138Z,0.93
2023-05-23T16:46:22.781Z,1.42
2023-05-23T16:48:51.480Z,1.10
2023-05-23T16:51:20.179Z,0.88
2023-05-23T16:53:49.259Z,0.82
2023-05-23T16:56:20.019Z,1.35
2023-05-23T16:58:48.401Z,1.00
2023-05-23T17:01:20.014Z,1.63
2023-05-23T17:03:59.622Z,1.10
2023-05-23T17:06:28.317Z,0.80
2023-05-23T17:08:57.615Z,1.40
2023-05-23T17:11:28.499Z,1.30
2023-05-23T17:14:00.056Z,1.25
2023-05-23T17:16:33.194Z,1.17
2023-05-23T17:19:02.359Z,1.33
2023-05-23T17:21:31.312Z,0.77
2023-05-23T17:24:00.188Z,1.40
2023-05-23T17:26:29.708Z,1.73
2023-05-23T17:28:58.430Z,1.75
2023-05-23T17:31:29.672Z,1.02
2023-05-23T17:33:59.465Z,1.33
2023-05-23T17:36:27.866Z,1.30
2023-05-23T17:38:57.395Z,0.95
2023-05-23T17:41:26.890Z,1.15
2023-05-23T17:43:55.710Z,1.02
2023-05-23T17:46:24.850Z,1.02
2023-05-23T17:48:53.255Z,0.70
2023-05-23T17:51:22.356Z,0.90
2023-05-23T17:53:53.621Z,1.08
2023-05-23T17:56:25.346Z,1.40
2023-05-23T17:58:54.311Z,1.17
2023-05-23T18:01:24.689Z,1.30
2023-05-23T18:04:05.737Z,1.20
2023-05-23T18:06:36.511Z,0.75
2023-05-23T18:09:05.131Z,1.08
2023-05-23T18:11:38.765Z,0.70
2023-05-23T18:14:13.468Z,1.27
2023-05-23T18:16:42.135Z,1.33
2023-05-23T18:19:11.960Z,0.93
2023-05-23T18:21:41.581Z,1.38
2023-05-23T18:24:11.677Z,1.30
2023-05-23T18:26:43.177Z,0.85
2023-05-23T18:29:13.987Z,0.90
2023-05-23T18:31:43.482Z,1.02
2023-05-23T18:34:15.658Z,0.80
2023-05-23T18:36:46.806Z,1.05
2023-05-23T18:39:19.466Z,1.38
2023-05-23T18:41:49.721Z,0.77
2023-05-23T18:44:20.652Z,0.88
2023-05-23T18:46:51.833Z,1.10
2023-05-23T18:49:23.080Z,1.65
2023-05-23T18:51:56.679Z,1.65
2023-05-23T18:54:28.248Z,1.05
2023-05-23T18:56:57.063Z,1.35
2023-05-23T18:59:27.819Z,1.77
2023-05-23T19:04:33.462Z,0.73
2023-05-23T19:07:02.527Z,1.55
2023-05-23T19:09:31.712Z,0.70
2023-05-23T19:12:00.625Z,0.93
2023-05-23T19:14:35.079Z,1.25
2023-05-23T19:17:07.069Z,0.88
2023-05-23T19:19:38.018Z,1.08
2023-05-23T19:22:08.004Z,1.05
2023-05-23T19:24:38.359Z,1.27
2023-05-23T19:27:07.349Z,1.02
2023-05-23T19:29:36.320Z,1.00
2023-05-23T19:32:05.766Z,0.60
2023-05-23T19:34:36.562Z,0.70
2023-05-23T19:37:08.322Z,0.60
2023-05-23T19:39:38.544Z,0.80
2023-05-23T19:42:10.302Z,0.75
2023-05-23T19:44:41.557Z,1.13
2023-05-23T19:47:10.375Z,1.00
2023-05-23T19:49:40.223Z,0.80
2023-05-23T19:52:08.760Z,0.90
2023-05-23T19:54:41.154Z,0.88
2023-05-23T19:57:12.520Z,1.10
2023-05-23T19:59:46.220Z,0.75
2023-05-23T20:02:19.275Z,0.73
2023-05-23T20:04:50.016Z,1.20
2023-05-23T20:07:18.749Z,1.08
2023-05-23T20:09:47.900Z,1.00
2023-05-23T20:12:16.369Z,1.05
2023-05-23T20:14:45.121Z,1.58
2023-05-23T20:17:15.774Z,0.88
2023-05-23T20:19:44.072Z,0.93
2023-05-23T20:22:13.881Z,0.82
2023-05-23T20:24:42.573Z,1.40
2023-05-23T20:27:11.067Z,1.00
2023-05-23T20:29:40.124Z,0.77
2023-05-23T20:32:11.009Z,1.02
2023-05-23T20:34:39.822Z,1.33
2023-05-23T20:37:13.483Z,0.98
2023-05-23T20:39:43.815Z,0.68
2023-05-23T20:42:15.097Z,1.20
2023-05-23T20:44:46.923Z,0.90
2023-05-23T20:47:18.748Z,0.82
2023-05-23T20:49:49.116Z,0.63
2023-05-23T20:52:17.688Z,1.63
2023-05-23T20:54:48.088Z,1.30
2023-05-23T20:57:19.878Z,0.77
2023-05-23T20:59:54.081Z,0.73
2023-05-23T21:02:22.622Z,0.75
2023-05-23T21:04:51.754Z,0.88
2023-05-23T21:07:20.607Z,0.80
2023-05-23T21:09:51.437Z,1.15
2023-05-23T21:12:21.971Z,1.52
2023-05-23T21:14:50.465Z,0.90
2023-05-23T21:17:21.752Z,0.88
2023-05-23T21:19:50.241Z,1.35
2023-05-23T21:22:18.803Z,1.95
2023-05-23T21:24:50.574Z,1.40
2023-05-23T21:27:22.869Z,0.60
2023-05-23T21:29:55.549Z,0.82
2023-05-23T21:32:24.896Z,0.65
2023-05-23T21:34:53.832Z,0.90
2023-05-23T21:37:27.601Z,1.02
2023-05-23T21:39:55.966Z,1.00
2023-05-23T21:42:26.278Z,0.88
2023-05-23T21:44:54.891Z,0.70
2023-05-23T21:47:25.064Z,0.75
2023-05-23T21:49:55.052Z,1.20
2023-05-23T21:52:23.757Z,1.27
2023-05-23T21:54:52.725Z,0.70
2023-05-23T21:57:24.049Z,0.68
2023-05-23T21:59:55.635Z,0.60
2023-05-23T22:02:24.060Z,0.90
2023-05-23T22:04:52.302Z,0.47
2023-05-23T22:07:25.279Z,0.90
2023-05-23T22:09:54.548Z,0.70
2023-05-23T22:12:23.731Z,1.08
2023-05-23T22:14:53.274Z,1.42
2023-05-23T22:17:22.939Z,0.95
2023-05-23T22:19:52.761Z,0.50
2023-05-23T22:22:24.742Z,0.80
2023-05-23T22:24:53.855Z,0.77
2023-05-23T22:27:22.454Z,0.82
2023-05-23T22:29:55.768Z,0.70
2023-05-23T22:32:26.711Z,0.98
2023-05-23T22:34:57.325Z,0.57
2023-05-23T22:37:36.490Z,0.68
2023-05-23T22:40:05.112Z,0.85
2023-05-23T22:42:40.370Z,1.10
2023-05-23T22:45:09.280Z,1.42
2023-05-23T22:47:48.405Z,0.88
2023-05-23T22:50:18.271Z,1.10
2023-05-23T22:52:50.719Z,0.80
2023-05-23T22:55:19.573Z,0.82
2023-05-23T22:57:49.060Z,0.70
2023-05-23T23:00:20.989Z,1.83
2023-05-23T23:03:08.675Z,0.43
2023-05-23T23:05:38.752Z,1.15
2023-05-23T23:08:10.164Z,0.77
2023-05-23T23:10:40.246Z,0.85
2023-05-23T23:13:13.555Z,0.73
2023-05-23T23:15:42.936Z,0.80
2023-05-23T23:18:14.902Z,0.80
2023-05-23T23:20:43.760Z,1.05
2023-05-23T23:23:12.382Z,1.67
2023-05-23T23:25:49.905Z,0.47
2023-05-23T23:28:20.218Z,0.40
2023-05-23T23:30:48.730Z,0.75
2023-05-23T23:33:33.408Z,0.60
2023-05-23T23:36:01.714Z,1.05
2023-05-23T23:38:35.711Z,0.77
2023-05-23T23:41:07.190Z,0.80
2023-05-23T23:43:37.148Z,0.80
2023-05-23T23:46:06.663Z,0.73
2023-05-23T23:48:35.459Z,0.82
2023-05-23T23:51:04.929Z,0.65
2023-05-23T23:53:34.104Z,0.93
2023-05-23T23:56:02.722Z,0.63
2023-05-23T23:58:33.116Z,0.70
